Time;durP1;ratioP1;P1;durP2;ratioP2;P2;SDS_P1;SDS_P2;PMS_P1;PMS_P2;Temp;Humidity;BMP_temperature;BMP_pressure;BME280_temperature;BME280_humidity;BME280_pressure;Samples;Min_cycle;Max_cycle;Signal;HPM_P1;HPM_P2
2021/06/25 00:00:57;;;;;;;14.73;8.73;;;15.10;82.70;;;;;;5073467;28;20060;-74
2021/06/25 00:03:22;;;;;;;10.90;7.82;;;15.00;82.80;;;;;;5073223;28;20032;-74
2021/06/25 00:05:48;;;;;;;11.65;8.07;;;15.00;82.80;;;;;;5071903;28;20032;-74
2021/06/25 00:08:13;;;;;;;13.63;8.30;;;14.90;82.90;;;;;;5052199;28;20469;-74
2021/06/25 00:10:39;;;;;;;10.90;8.10;;;14.90;83.10;;;;;;5035382;28;20049;-74
2021/06/25 00:13:05;;;;;;;11.73;8.23;;;14.80;83.20;;;;;;5052001;28;20032;-74
2021/06/25 00:15:31;;;;;;;15.25;9.15;;;14.80;83.40;;;;;;5068833;28;20021;-74
2021/06/25 00:17:59;;;;;;;12.15;8.82;;;14.80;83.70;;;;;;5053094;28;20026;-74
2021/06/25 00:20:26;;;;;;;12.65;8.85;;;14.70;83.90;;;;;;5052030;28;20032;-74
2021/06/25 00:22:52;;;;;;;11.93;8.93;;;14.60;84.10;;;;;;5051632;28;20039;-75
2021/06/25 00:25:18;;;;;;;12.00;9.02;;;14.60;84.40;;;;;;5052042;28;20061;-74
2021/06/25 00:27:44;;;;;;;14.57;8.43;;;14.60;84.50;;;;;;5052217;28;20079;-74
2021/06/25 00:30:11;;;;;;;13.23;9.32;;;14.50;84.50;;;;;;5051718;28;20082;-74
2021/06/25 00:32:37;;;;;;;13.27;9.98;;;14.40;84.60;;;;;;5052979;28;20079;-74
2021/06/25 00:35:04;;;;;;;13.48;9.93;;;14.40;84.80;;;;;;5068566;28;20021;-74
2021/06/25 00:37:30;;;;;;;17.48;9.98;;;14.30;84.90;;;;;;5053287;28;20112;-74
2021/06/25 00:39:56;;;;;;;12.80;10.30;;;14.20;84.90;;;;;;5072505;28;20060;-74
2021/06/25 00:42:22;;;;;;;12.95;10.30;;;14.20;85.10;;;;;;5051307;28;20056;-74
2021/06/25 00:44:47;;;;;;;14.02;10.65;;;14.10;85.20;;;;;;5051597;28;20440;-74
2021/06/25 00:47:13;;;;;;;14.68;10.90;;;14.10;85.30;;;;;;5051682;28;20033;-74
2021/06/25 00:49:39;;;;;;;17.52;11.18;;;14.00;85.50;;;;;;5068176;28;20388;-74
2021/06/25 00:52:13;;;;;;;15.52;11.82;;;14.00;85.50;;;;;;5051400;28;20431;-74
2021/06/25 00:54:38;;;;;;;15.95;11.77;;;13.90;85.60;;;;;;5070902;28;20078;-74
2021/06/25 00:57:05;;;;;;;12.88;10.35;;;13.80;85.80;;;;;;5072684;28;20079;-74
2021/06/25 00:59:33;;;;;;;14.15;11.13;;;13.80;86.00;;;;;;5071272;28;20052;-74
2021/06/25 01:01:58;;;;;;;16.60;13.38;;;13.70;86.00;;;;;;5071489;28;20028;-75
2021/06/25 01:04:24;;;;;;;17.08;13.48;;;13.70;86.20;;;;;;5054738;28;20402;-74
2021/06/25 01:06:50;;;;;;;15.85;12.13;;;13.70;86.30;;;;;;5072633;28;20032;-74
2021/06/25 01:09:19;;;;;;;17.40;12.20;;;13.70;86.50;;;;;;5076240;28;20376;-75
2021/06/25 01:11:45;;;;;;;16.80;12.88;;;13.60;86.60;;;;;;5075189;28;20496;-74
2021/06/25 01:14:10;;;;;;;18.70;13.25;;;13.60;86.80;;;;;;5074951;28;20036;-74
2021/06/25 01:16:36;;;;;;;20.52;14.05;;;13.50;87.00;;;;;;5074904;28;20032;-74
2021/06/25 01:19:02;;;;;;;20.17;14.35;;;13.50;87.20;;;;;;5058371;28;20025;-74
2021/06/25 01:21:28;;;;;;;20.48;14.15;;;13.40;87.10;;;;;;5076083;28;20043;-75
2021/06/25 01:23:54;;;;;;;18.08;15.00;;;13.40;87.30;;;;;;5075249;28;20519;-74
2021/06/25 01:26:20;;;;;;;19.65;14.13;;;13.30;87.50;;;;;;5057665;28;20120;-74
2021/06/25 01:28:45;;;;;;;19.48;15.05;;;13.30;87.70;;;;;;5058341;28;20036;-75
2021/06/25 01:31:11;;;;;;;19.95;14.23;;;13.20;87.90;;;;;;5075003;28;20027;-75
2021/06/25 01:33:37;;;;;;;19.77;14.85;;;13.20;88.10;;;;;;5074862;28;20031;-74
2021/06/25 01:36:03;;;;;;;19.80;14.88;;;13.10;88.20;;;;;;5074624;28;20499;-75
2021/06/25 01:38:29;;;;;;;19.58;14.02;;;13.10;88.20;;;;;;5075914;28;20096;-74
2021/06/25 01:40:55;;;;;;;20.27;16.10;;;13.00;88.20;;;;;;5076017;28;20107;-74
2021/06/25 01:43:24;;;;;;;22.88;16.23;;;13.00;88.60;;;;;;5075663;28;20025;-74
2021/06/25 01:45:51;;;;;;;25.27;17.08;;;12.90;88.70;;;;;;5074881;28;20021;-74
2021/06/25 01:48:17;;;;;;;22.70;16.58;;;12.90;88.70;;;;;;5074850;28;20384;-74
2021/06/25 01:50:43;;;;;;;25.05;16.60;;;12.90;88.80;;;;;;5074867;28;20032;-74
2021/06/25 01:53:15;;;;;;;24.42;16.55;;;12.90;89.50;;;;;;5076054;28;20098;-74
2021/06/25 01:55:42;;;;;;;22.58;16.33;;;12.80;89.10;;;;;;5074741;28;20111;-74
2021/06/25 01:58:25;;;;;;;24.05;16.75;;;12.80;89.20;;;;;;5075281;28;20033;-74
2021/06/25 02:01:17;;;;;;;21.75;16.40;;;12.70;89.50;;;;;;5074742;28;20138;-74
2021/06/25 02:03:44;;;;;;;22.35;16.33;;;12.70;89.70;;;;;;5074930;28;20024;-74
2021/06/25 02:06:10;;;;;;;19.70;15.63;;;12.70;89.80;;;;;;5075450;28;20476;-74
2021/06/25 02:08:39;;;;;;;24.13;16.20;;;12.60;89.90;;;;;;5057801;28;20345;-75
2021/06/25 02:11:05;;;;;;;23.58;16.90;;;12.60;90.00;;;;;;5075407;28;20047;-74
2021/06/25 02:13:31;;;;;;;27.35;17.48;;;12.40;90.00;;;;;;5075449;28;20120;-75
2021/06/25 02:15:56;;;;;;;25.20;17.88;;;12.50;90.10;;;;;;5057592;28;20128;-74
2021/06/25 02:18:22;;;;;;;25.63;17.88;;;12.40;90.10;;;;;;5074938;28;20029;-74
2021/06/25 02:20:48;;;;;;;26.10;17.65;;;12.30;90.30;;;;;;5074351;28;20464;-74
2021/06/25 02:23:13;;;;;;;25.92;17.85;;;12.30;90.30;;;;;;5075538;28;20035;-75
2021/06/25 02:25:39;;;;;;;26.50;18.77;;;12.30;90.30;;;;;;5074771;28;20102;-75
2021/06/25 02:28:05;;;;;;;25.20;19.00;;;12.30;90.30;;;;;;5073732;28;20025;-75
2021/06/25 02:30:30;;;;;;;26.58;18.75;;;12.30;90.30;;;;;;5073739;28;20078;-74
2021/06/25 02:32:56;;;;;;;26.38;17.77;;;12.20;90.30;;;;;;5073873;28;20368;-75
2021/06/25 02:35:22;;;;;;;26.52;19.33;;;12.20;90.40;;;;;;5075180;28;20369;-75
2021/06/25 02:37:48;;;;;;;28.87;18.93;;;12.20;90.50;;;;;;5073865;28;20025;-75
2021/06/25 02:40:14;;;;;;;25.80;18.17;;;12.20;90.50;;;;;;5074758;28;20024;-75
2021/06/25 02:42:40;;;;;;;25.52;17.77;;;12.10;90.50;;;;;;5073379;28;20044;-75
2021/06/25 02:45:07;;;;;;;23.88;17.50;;;12.10;90.70;;;;;;5073562;28;20389;-75
2021/06/25 02:47:34;;;;;;;30.88;21.02;;;12.10;90.70;;;;;;5073664;28;20033;-75
2021/06/25 02:50:04;;;;;;;25.17;18.30;;;12.10;90.80;;;;;;5074869;28;20055;-75
2021/06/25 02:52:29;;;;;;;30.08;18.70;;;12.10;90.90;;;;;;5074575;28;20376;-75
2021/06/25 02:54:55;;;;;;;26.63;18.83;;;12.00;90.90;;;;;;5073720;28;20103;-75
2021/06/25 02:57:21;;;;;;;25.08;18.73;;;12.00;91.10;;;;;;5073997;28;20024;-75
2021/06/25 02:59:46;;;;;;;27.43;18.30;;;12.00;91.10;;;;;;5056451;28;20029;-75
2021/06/25 03:02:12;;;;;;;26.20;18.93;;;12.00;91.20;;;;;;5056468;28;20060;-75
2021/06/25 03:04:37;;;;;;;26.02;18.23;;;12.00;91.20;;;;;;5074329;28;20115;-75
2021/06/25 03:07:03;;;;;;;26.77;19.20;;;12.00;91.20;;;;;;5074385;28;20060;-75
2021/06/25 03:09:29;;;;;;;27.57;19.20;;;12.00;91.30;;;;;;5074509;28;20108;-75
2021/06/25 03:11:55;;;;;;;26.67;18.25;;;12.00;91.30;;;;;;5072729;28;20567;-75
2021/06/25 03:14:20;;;;;;;28.53;19.60;;;12.00;91.40;;;;;;5072793;28;20032;-75
2021/06/25 03:16:46;;;;;;;28.77;19.20;;;11.90;91.40;;;;;;5072736;28;20438;-75
2021/06/25 03:19:12;;;;;;;30.23;20.07;;;11.90;91.40;;;;;;5072986;28;20067;-75
2021/06/25 03:21:37;;;;;;;30.47;21.30;;;11.90;91.50;;;;;;5072820;28;20016;-75
2021/06/25 03:24:03;;;;;;;31.60;20.83;;;11.90;91.60;;;;;;5073157;28;20083;-75
2021/06/25 03:26:29;;;;;;;32.53;20.67;;;11.90;91.60;;;;;;5072975;28;20033;-75
2021/06/25 03:28:54;;;;;;;29.80;20.10;;;11.80;91.60;;;;;;5073793;28;20031;-75
2021/06/25 03:31:22;;;;;;;29.07;20.70;;;11.90;91.70;;;;;;5071579;28;20078;-75
2021/06/25 03:33:48;;;;;;;28.73;19.73;;;11.80;91.70;;;;;;5072989;28;20036;-75
2021/06/25 03:36:13;;;;;;;29.70;20.67;;;11.90;91.80;;;;;;5072760;28;20025;-75
2021/06/25 03:38:39;;;;;;;27.77;20.20;;;11.90;91.80;;;;;;5072814;28;20031;-75
2021/06/25 03:41:05;;;;;;;29.15;20.92;;;11.90;91.90;;;;;;5072496;28;20070;-75
2021/06/25 03:43:30;;;;;;;30.45;19.60;;;12.00;92.00;;;;;;5072870;28;20032;-75
2021/06/25 03:45:56;;;;;;;29.80;20.93;;;12.00;92.00;;;;;;5072042;28;20056;-75
2021/06/25 03:48:22;;;;;;;28.05;20.05;;;12.00;92.00;;;;;;5072915;28;20113;-75
2021/06/25 03:50:47;;;;;;;30.13;19.70;;;12.00;92.00;;;;;;5055621;28;20093;-75
2021/06/25 03:53:13;;;;;;;29.45;20.63;;;12.00;92.00;;;;;;5072389;28;20029;-75
2021/06/25 03:56:23;;;;;;;30.63;20.50;;;12.10;92.00;;;;;;5072694;28;20035;-75
2021/06/25 03:58:24;;;;;;;31.60;20.10;;;12.10;92.00;;;;;;5066017;28;20028;-75
2021/06/25 04:00:50;;;;;;;29.20;20.02;;;12.10;91.90;;;;;;5069846;28;20020;-75
2021/06/25 04:03:16;;;;;;;29.55;21.25;;;12.30;92.00;;;;;;5053132;28;20029;-75
2021/06/25 04:05:41;;;;;;;28.15;19.80;;;12.30;92.10;;;;;;5073739;28;20444;-75
2021/06/25 04:08:07;;;;;;;28.80;20.90;;;12.40;92.00;;;;;;5093522;28;20040;-75
2021/06/25 04:10:32;;;;;;;30.40;21.70;;;12.30;92.00;;;;;;5091913;28;20055;-75
2021/06/25 04:12:58;;;;;;;26.42;18.98;;;12.40;92.00;;;;;;5075061;28;20040;-74
2021/06/25 04:15:24;;;;;;;30.10;20.98;;;12.50;92.00;;;;;;5082016;28;20052;-75
2021/06/25 04:17:49;;;;;;;33.03;21.15;;;12.50;91.90;;;;;;5072129;28;20103;-75
2021/06/25 04:20:17;;;;;;;31.25;21.58;;;12.50;92.20;;;;;;5071807;28;20025;-75
2021/06/25 04:22:43;;;;;;;30.33;21.42;;;12.50;91.90;;;;;;5073582;28;20021;-75
2021/06/25 04:25:10;;;;;;;27.50;20.23;;;12.60;92.00;;;;;;5071970;28;20081;-75
2021/06/25 04:27:36;;;;;;;31.38;20.73;;;12.70;92.00;;;;;;5072300;28;20028;-75
2021/06/25 04:30:04;;;;;;;29.83;20.17;;;12.70;91.90;;;;;;5073251;28;20035;-74
2021/06/25 04:32:30;;;;;;;27.58;21.20;;;12.80;91.90;;;;;;5072679;28;20028;-75
2021/06/25 04:34:55;;;;;;;29.15;20.95;;;12.80;91.90;;;;;;5055213;28;20029;-75
2021/06/25 04:37:21;;;;;;;29.30;20.40;;;12.90;91.90;;;;;;5073040;28;20384;-76
2021/06/25 04:39:47;;;;;;;27.92;20.23;;;12.90;91.90;;;;;;5071705;28;20476;-74
2021/06/25 04:42:13;;;;;;;28.10;19.77;;;13.00;91.90;;;;;;5057777;28;20032;-75
2021/06/25 04:44:39;;;;;;;32.88;20.92;;;13.10;91.90;;;;;;5076144;28;20031;-75
2021/06/25 04:47:05;;;;;;;30.70;19.63;;;13.10;91.80;;;;;;5075917;28;20027;-76
2021/06/25 04:49:32;;;;;;;30.38;21.92;;;13.20;91.70;;;;;;5076252;28;20032;-75
2021/06/25 04:51:57;;;;;;;28.25;20.15;;;13.20;91.60;;;;;;5076200;28;20051;-75
2021/06/25 04:54:23;;;;;;;29.63;21.80;;;13.30;91.70;;;;;;5076200;28;20480;-75
2021/06/25 04:56:48;;;;;;;28.67;20.70;;;13.30;91.60;;;;;;5075617;28;20553;-75
2021/06/25 04:59:14;;;;;;;30.23;22.40;;;13.30;91.60;;;;;;5058881;28;20033;-75
2021/06/25 05:01:40;;;;;;;31.50;22.45;;;13.40;91.50;;;;;;5058888;28;20483;-75
2021/06/25 05:04:05;;;;;;;29.13;20.92;;;13.30;91.40;;;;;;5075869;28;20033;-75
2021/06/25 05:06:31;;;;;;;34.65;22.63;;;13.40;91.40;;;;;;5076176;28;20035;-75
2021/06/25 05:08:57;;;;;;;32.03;22.90;;;13.30;91.20;;;;;;5074594;28;20028;-74
2021/06/25 05:11:22;;;;;;;33.08;22.08;;;13.40;90.90;;;;;;5075498;28;20403;-75
2021/06/25 05:13:48;;;;;;;30.33;22.02;;;13.30;90.80;;;;;;5058255;28;20166;-77
2021/06/25 05:16:14;;;;;;;33.42;22.52;;;13.30;90.90;;;;;;5074948;28;20496;-75
2021/06/25 05:18:40;;;;;;;29.42;20.63;;;13.30;90.90;;;;;;5055648;28;20016;-75
2021/06/25 05:21:05;;;;;;;29.15;20.92;;;13.40;90.90;;;;;;5076291;28;20033;-75
2021/06/25 05:23:31;;;;;;;33.78;22.80;;;13.40;90.80;;;;;;5058446;28;20030;-75
2021/06/25 05:25:57;;;;;;;31.85;21.15;;;13.50;90.70;;;;;;5075449;28;20025;-74
2021/06/25 05:28:23;;;;;;;27.27;20.40;;;13.50;90.70;;;;;;5058615;28;20028;-71
2021/06/25 05:30:49;;;;;;;30.98;20.10;;;13.60;90.70;;;;;;5076292;28;20135;-76
2021/06/25 05:33:15;;;;;;;27.02;19.10;;;13.60;90.50;;;;;;5075914;28;20077;-76
2021/06/25 05:35:40;;;;;;;31.20;20.08;;;13.70;90.50;;;;;;5057869;28;20472;-75
2021/06/25 05:38:13;;;;;;;26.45;19.35;;;13.80;90.50;;;;;;5057430;28;20025;-75
2021/06/25 05:40:41;;;;;;;23.23;17.77;;;13.90;90.40;;;;;;5075545;28;20032;-75
2021/06/25 05:43:07;;;;;;;32.50;19.98;;;14.00;90.30;;;;;;5074521;28;20465;-76
2021/06/25 05:45:34;;;;;;;28.75;19.25;;;14.10;90.20;;;;;;5074847;28;20055;-76
2021/06/25 05:48:00;;;;;;;24.90;18.02;;;14.20;90.10;;;;;;5075883;28;20211;-77
2021/06/25 05:50:26;;;;;;;22.77;16.88;;;14.20;90.00;;;;;;5074175;28;20495;-76
2021/06/25 05:52:52;;;;;;;21.98;16.42;;;14.30;90.00;;;;;;5056959;28;20024;-76
2021/06/25 05:55:17;;;;;;;21.27;16.25;;;14.30;90.10;;;;;;5075793;28;20024;-75
2021/06/25 05:57:45;;;;;;;24.95;16.83;;;14.40;89.90;;;;;;5057884;28;20052;-76
2021/06/25 06:00:11;;;;;;;22.13;16.27;;;14.40;88.90;;;;;;5058069;28;20032;-76
2021/06/25 06:02:37;;;;;;;22.33;14.32;;;14.50;88.20;;;;;;5057561;28;20480;-76
2021/06/25 06:05:03;;;;;;;19.88;14.02;;;14.60;88.00;;;;;;5074277;28;20033;-75
2021/06/25 06:07:29;;;;;;;18.65;13.70;;;14.60;87.50;;;;;;5075687;28;20032;-75
2021/06/25 06:09:55;;;;;;;19.15;13.98;;;14.70;86.90;;;;;;5057271;28;20112;-77
2021/06/25 06:12:21;;;;;;;20.27;14.00;;;14.80;86.50;;;;;;5056786;28;20141;-76
2021/06/25 06:14:47;;;;;;;20.95;13.82;;;14.80;86.20;;;;;;5075549;28;20081;-77
2021/06/25 06:17:13;;;;;;;21.77;14.68;;;14.90;85.60;;;;;;5075199;28;20028;-77
2021/06/25 06:19:41;;;;;;;18.58;11.88;;;15.00;85.30;;;;;;5057110;28;20077;-77
2021/06/25 06:33:12;;;;;;;19.73;12.00;;;15.30;82.60;;;;;;5073606;28;20163;-77
2021/06/25 06:35:39;;;;;;;;;;;15.40;81.40;;;;;;5071855;28;20032;-77
2021/06/25 06:38:04;;;;;;;21.52;12.40;;;15.50;80.70;;;;;;5056533;28;19916;-77
2021/06/25 06:40:32;;;;;;;19.33;13.25;;;15.50;80.20;;;;;;5074355;28;20117;-79
2021/06/25 06:42:58;;;;;;;14.63;11.05;;;15.50;79.80;;;;;;5073223;28;20033;-77
2021/06/25 06:45:24;;;;;;;15.15;10.90;;;15.60;79.90;;;;;;5056404;28;20029;-77
2021/06/25 06:47:50;;;;;;;15.40;11.38;;;15.70;79.90;;;;;;5050596;28;20472;-78
2021/06/25 06:50:16;;;;;;;16.15;11.80;;;15.80;79.80;;;;;;5072834;28;20036;-77
2021/06/25 06:52:43;;;;;;;18.83;13.43;;;15.80;79.60;;;;;;5072973;28;20451;-77
2021/06/25 06:55:11;;;;;;;23.00;14.70;;;15.90;79.50;;;;;;5073883;28;20028;-76
2021/06/25 06:57:37;;;;;;;23.33;16.23;;;16.00;78.80;;;;;;5093296;28;20044;-81
2021/06/25 07:00:05;;;;;;;20.70;15.95;;;16.00;78.60;;;;;;5061117;28;20059;-77
2021/06/25 07:02:30;;;;;;;23.75;15.57;;;16.10;78.30;;;;;;5074556;28;20036;-77
2021/06/25 07:04:56;;;;;;;22.38;15.00;;;16.20;78.20;;;;;;5073310;28;20037;-78
2021/06/25 07:07:21;;;;;;;21.83;14.93;;;16.30;78.10;;;;;;5073001;28;20056;-77
2021/06/25 07:09:47;;;;;;;24.30;16.42;;;16.40;78.00;;;;;;5072811;28;20032;-77
2021/06/25 07:12:13;;;;;;;22.90;16.33;;;16.40;77.80;;;;;;5072837;28;20049;-79
2021/06/25 07:14:38;;;;;;;27.83;16.02;;;16.50;77.70;;;;;;5072916;28;20067;-77
2021/06/25 07:17:04;;;;;;;19.85;14.98;;;16.60;77.70;;;;;;5056382;28;20120;-77
2021/06/25 07:19:30;;;;;;;18.48;14.95;;;16.70;77.70;;;;;;5072937;28;20064;-77
2021/06/25 07:21:55;;;;;;;19.30;14.95;;;16.80;77.70;;;;;;5072754;28;20119;-77
2021/06/25 07:24:21;;;;;;;24.08;14.93;;;16.90;77.70;;;;;;5072735;28;20025;-78
2021/06/25 07:26:47;;;;;;;20.95;15.27;;;17.00;77.70;;;;;;5072002;28;20549;-77
2021/06/25 07:29:14;;;;;;;21.27;14.40;;;17.10;77.70;;;;;;5049043;28;20036;-77
2021/06/25 07:31:40;;;;;;;27.00;16.80;;;17.30;77.60;;;;;;5038945;28;20065;-77
2021/06/25 07:34:06;;;;;;;23.65;17.63;;;17.40;77.50;;;;;;5071801;28;20499;-79
2021/06/25 07:36:31;;;;;;;23.90;16.63;;;17.50;77.20;;;;;;5073660;28;20103;-77
2021/06/25 07:38:57;;;;;;;23.40;16.95;;;17.60;76.80;;;;;;5070909;28;20032;-78
2021/06/25 07:41:23;;;;;;;24.77;16.55;;;17.70;76.50;;;;;;5073541;28;20074;-79
2021/06/25 07:43:49;;;;;;;23.00;17.05;;;17.80;76.30;;;;;;5076957;28;20476;-79
2021/06/25 07:46:15;;;;;;;25.85;18.15;;;17.80;76.10;;;;;;5072391;28;20079;-78
2021/06/25 07:48:40;;;;;;;23.33;17.55;;;17.80;75.70;;;;;;5070429;28;20056;-79
2021/06/25 07:51:06;;;;;;;20.92;14.95;;;17.80;75.60;;;;;;5052420;28;20020;-77
2021/06/25 07:53:32;;;;;;;22.98;18.30;;;17.80;75.70;;;;;;5060645;28;20032;-77
2021/06/25 07:55:58;;;;;;;23.33;18.95;;;17.70;75.40;;;;;;5070070;28;20029;-78
2021/06/25 07:58:23;;;;;;;26.88;20.20;;;17.70;75.50;;;;;;5055332;28;20017;-77
2021/06/25 08:00:49;;;;;;;24.70;19.55;;;17.60;76.10;;;;;;5054604;28;20024;-77
2021/06/25 08:03:15;;;;;;;26.83;18.30;;;17.60;75.90;;;;;;5071282;28;20025;-76
2021/06/25 08:05:41;;;;;;;27.17;20.08;;;17.50;76.00;;;;;;5055114;28;20111;-77
2021/06/25 08:08:07;;;;;;;25.23;19.08;;;17.50;76.20;;;;;;5071758;28;20020;-77
2021/06/25 08:10:34;;;;;;;26.10;18.88;;;17.50;76.30;;;;;;5070207;28;20029;-78
2021/06/25 08:13:00;;;;;;;28.65;20.30;;;17.50;77.10;;;;;;5071426;28;20510;-77
2021/06/25 08:15:26;;;;;;;29.55;20.27;;;17.40;77.10;;;;;;5071664;28;20021;-78
2021/06/25 08:17:52;;;;;;;28.23;20.17;;;17.40;76.70;;;;;;5065546;28;20019;-78
2021/06/25 08:20:18;;;;;;;28.05;22.73;;;17.40;76.90;;;;;;5066213;28;20023;-77
2021/06/25 08:22:43;;;;;;;28.50;20.95;;;17.40;76.90;;;;;;5039872;28;20499;-79
2021/06/25 08:25:09;;;;;;;29.55;22.63;;;17.30;77.00;;;;;;5075297;28;20036;-77
2021/06/25 08:27:35;;;;;;;31.85;22.80;;;17.30;77.10;;;;;;5072047;28;20032;-78
2021/06/25 08:30:02;;;;;;;29.05;20.85;;;17.30;77.20;;;;;;5074018;28;20048;-78
2021/06/25 08:32:28;;;;;;;34.20;25.13;;;17.30;77.20;;;;;;5093846;28;20115;-77
2021/06/25 08:34:54;;;;;;;38.03;26.10;;;17.20;77.20;;;;;;5073596;28;20100;-79
2021/06/25 08:37:19;;;;;;;38.65;26.25;;;17.20;77.40;;;;;;5072483;28;20064;-77
2021/06/25 08:39:45;;;;;;;29.50;23.20;;;17.20;77.60;;;;;;5072888;28;20103;-78
2021/06/25 08:42:12;;;;;;;34.00;24.80;;;17.20;77.80;;;;;;5062974;28;20028;-77
2021/06/25 08:44:40;;;;;;;33.03;24.63;;;17.20;78.00;;;;;;5071602;28;20048;-78
2021/06/25 08:47:07;;;;;;;31.88;21.77;;;17.20;78.00;;;;;;5071676;28;20035;-79
2021/06/25 08:49:40;;;;;;;31.63;23.27;;;17.30;78.30;;;;;;5071602;28;20202;-79
2021/06/25 08:52:06;;;;;;;34.25;24.33;;;17.40;78.50;;;;;;5061630;28;20025;-77
2021/06/25 08:54:33;;;;;;;33.80;25.75;;;17.40;78.40;;;;;;5048522;28;20032;-78
2021/06/25 08:57:03;;;;;;;31.95;23.92;;;17.40;78.90;;;;;;5071356;28;20021;-79
2021/06/25 08:59:29;;;;;;;35.75;24.98;;;17.50;78.40;;;;;;5072060;28;20028;-77
2021/06/25 09:01:55;;;;;;;28.23;21.20;;;17.60;78.50;;;;;;5066297;28;20025;-78
2021/06/25 09:04:38;;;;;;;30.33;23.83;;;17.50;78.60;;;;;;5072309;28;20159;-78
2021/06/25 09:07:07;;;;;;;31.58;22.23;;;17.60;78.70;;;;;;5072865;28;20016;-78
2021/06/25 09:09:43;;;;;;;30.70;23.40;;;17.60;78.60;;;;;;5072656;28;20154;-78
2021/06/25 09:12:20;;;;;;;28.40;21.10;;;17.70;78.70;;;;;;5065618;28;20076;-77
2021/06/25 09:15:07;;;;;;;33.92;22.38;;;17.80;78.80;;;;;;5071243;28;20380;-80
2021/06/25 09:17:34;;;;;;;30.45;21.45;;;17.80;78.60;;;;;;5072423;28;20024;-80
2021/06/25 09:20:01;;;;;;;34.47;22.77;;;17.90;78.60;;;;;;5054361;28;20032;-80
2021/06/25 09:22:27;;;;;;;31.50;22.70;;;17.80;78.30;;;;;;5054136;28;20021;-79
2021/06/25 09:25:19;;;;;;;30.65;22.23;;;17.90;78.90;;;;;;5051907;28;20025;-77
2021/06/25 09:27:55;;;;;;;31.40;21.88;;;17.90;78.30;;;;;;5051078;28;20040;-78
2021/06/25 09:30:20;;;;;;;30.45;22.70;;;17.90;78.00;;;;;;5067163;28;20353;-77
2021/06/25 09:32:49;;;;;;;26.05;20.00;;;18.00;78.00;;;;;;5057496;28;20032;-77
2021/06/25 09:35:20;;;;;;;28.42;20.25;;;18.10;77.70;;;;;;5056266;28;20077;-80
2021/06/25 09:37:49;;;;;;;27.15;20.08;;;18.10;77.40;;;;;;5089807;28;20044;-78
2021/06/25 09:40:16;;;;;;;28.75;20.52;;;18.20;76.90;;;;;;5074709;28;20394;-78
2021/06/25 09:42:44;;;;;;;27.25;20.60;;;18.30;76.40;;;;;;5058782;28;20024;-77
2021/06/25 09:45:16;;;;;;;29.40;21.52;;;18.40;75.80;;;;;;5070424;28;20033;-79
2021/06/25 09:47:42;;;;;;;25.83;18.63;;;18.50;75.40;;;;;;5067914;28;20032;-79
2021/06/25 09:50:17;;;;;;;27.02;18.73;;;18.60;75.10;;;;;;5071271;28;20060;-77
2021/06/25 09:52:50;;;;;;;27.52;18.48;;;18.70;74.40;;;;;;5073925;28;20388;-77
2021/06/25 09:55:23;;;;;;;25.50;18.67;;;18.80;74.00;;;;;;5074212;28;20043;-79
2021/06/25 09:58:31;;;;;;;25.08;17.63;;;18.90;73.60;;;;;;5058678;28;20282;-83
2021/06/25 10:03:52;;;;;;;26.30;19.35;;;19.20;72.40;;;;;;5062102;28;20579;-78
2021/06/25 10:06:20;;;;;;;23.77;19.00;;;19.20;71.90;;;;;;5047764;28;20141;-81
2021/06/25 10:08:47;;;;;;;27.20;18.73;;;19.20;71.80;;;;;;5073860;28;20443;-80
2021/06/25 10:11:15;;;;;;;26.92;20.40;;;19.30;71.60;;;;;;5075619;28;20384;-79
2021/06/25 10:13:42;;;;;;;24.92;17.73;;;19.40;71.10;;;;;;5073023;28;20040;-79
2021/06/25 10:16:09;;;;;;;25.63;17.65;;;19.40;71.10;;;;;;5072606;28;20027;-77
2021/06/25 10:18:36;;;;;;;28.17;19.85;;;19.40;70.80;;;;;;5073077;28;20013;-78
2021/06/25 10:21:04;;;;;;;27.48;19.83;;;19.40;70.40;;;;;;5069337;28;20074;-76
2021/06/25 10:23:32;;;;;;;25.67;18.65;;;19.40;70.40;;;;;;5057407;28;20555;-76
2021/06/25 10:26:01;;;;;;;25.05;19.15;;;19.40;70.40;;;;;;5080792;28;20418;-79
2021/06/25 10:28:27;;;;;;;25.48;20.25;;;19.30;70.50;;;;;;5074113;28;20170;-77
2021/06/25 10:30:53;;;;;;;27.15;22.25;;;19.20;70.50;;;;;;5057278;28;20020;-77
2021/06/25 10:33:19;;;;;;;26.20;20.23;;;19.20;70.80;;;;;;5056866;28;20178;-78
2021/06/25 10:35:49;;;;;;;27.63;21.30;;;19.20;71.10;;;;;;5073336;28;20504;-77
2021/06/25 10:38:15;;;;;;;25.52;19.50;;;19.10;71.20;;;;;;5072755;28;20040;-77
2021/06/25 10:40:54;;;;;;;23.58;19.90;;;19.10;71.40;;;;;;5072979;28;20024;-78
2021/06/25 10:43:51;;;;;;;25.67;19.13;;;19.10;71.50;;;;;;5073594;28;20021;-78
2021/06/25 10:46:26;;;;;;;24.65;17.27;;;19.20;71.60;;;;;;5068561;28;20158;-77
2021/06/25 10:48:53;;;;;;;25.13;16.50;;;19.40;71.80;;;;;;5073817;28;20031;-79
2021/06/25 10:51:24;;;;;;;24.67;19.52;;;19.60;71.80;;;;;;5074591;28;20507;-80
2021/06/25 10:54:11;;;;;;;22.25;17.63;;;19.90;71.00;;;;;;5073157;28;20103;-81
2021/06/25 10:56:39;;;;;;;20.80;16.65;;;20.10;70.90;;;;;;5072969;28;20087;-78
2021/06/25 10:59:38;;;;;;;20.88;16.88;;;20.30;70.80;;;;;;5073559;28;20051;-79
2021/06/25 11:02:10;;;;;;;23.98;16.88;;;20.50;71.00;;;;;;5072873;28;20461;-77
2021/06/25 11:04:49;;;;;;;18.52;15.00;;;20.60;69.60;;;;;;5056585;28;20086;-77
2021/06/25 11:07:43;;;;;;;20.90;17.10;;;20.70;69.30;;;;;;5071920;28;20036;-76
2021/06/25 11:10:09;;;;;;;20.77;17.05;;;20.80;68.80;;;;;;5052009;28;20045;-76
2021/06/25 11:12:40;;;;;;;19.83;16.40;;;20.90;68.90;;;;;;5072019;28;20471;-76
2021/06/25 11:15:08;;;;;;;19.80;16.23;;;21.10;68.80;;;;;;5074360;28;20024;-76
2021/06/25 11:17:51;;;;;;;17.95;15.02;;;21.20;68.40;;;;;;5073235;28;20464;-76
2021/06/25 11:20:23;;;;;;;22.67;16.30;;;21.30;67.60;;;;;;5074508;28;20480;-75
2021/06/25 11:23:09;;;;;;;21.17;17.05;;;21.40;67.60;;;;;;5073028;28;20032;-76
2021/06/25 11:25:45;;;;;;;18.52;15.65;;;21.70;67.50;;;;;;5074297;28;20142;-77
2021/06/25 11:28:26;;;;;;;18.73;15.05;;;22.00;67.10;;;;;;5072886;28;20488;-78
2021/06/25 11:30:52;;;;;;;18.88;15.48;;;22.10;66.50;;;;;;5072699;28;20183;-77
2021/06/25 11:33:32;;;;;;;22.13;16.88;;;22.30;66.20;;;;;;5072558;28;20547;-76
2021/06/25 11:36:25;;;;;;;16.60;12.30;;;22.40;65.80;;;;;;5056365;28;20024;-84
2021/06/25 11:39:12;;;;;;;20.25;15.85;;;22.50;65.00;;;;;;5073517;28;20028;-78
2021/06/25 11:41:48;;;;;;;19.10;15.02;;;22.40;64.70;;;;;;5073531;28;20031;-77
2021/06/25 11:44:17;;;;;;;21.52;14.55;;;22.50;64.70;;;;;;5072310;28;20499;-78
2021/06/25 11:46:56;;;;;;;17.63;15.02;;;22.50;64.90;;;;;;5073451;28;20488;-77
2021/06/25 11:49:26;;;;;;;17.75;14.43;;;22.60;64.50;;;;;;5072353;28;20115;-80
2021/06/25 11:51:51;;;;;;;17.13;15.25;;;22.60;64.40;;;;;;5071896;28;20024;-77
2021/06/25 11:54:20;;;;;;;15.93;13.38;;;22.60;64.40;;;;;;5055238;28;20124;-76
2021/06/25 11:56:48;;;;;;;21.45;15.82;;;22.70;64.60;;;;;;5073274;28;20027;-78
2021/06/25 11:59:15;;;;;;;21.58;16.00;;;22.70;64.70;;;;;;5072134;28;20033;-76
2021/06/25 12:01:56;;;;;;;17.80;15.90;;;22.70;63.90;;;;;;5073244;28;20420;-76
2021/06/25 12:04:38;;;;;;;17.15;13.45;;;22.80;64.00;;;;;;5072142;28;20515;-77
2021/06/25 12:07:07;;;;;;;20.23;14.30;;;22.80;63.80;;;;;;5069257;28;20385;-76
2021/06/25 12:09:53;;;;;;;20.23;14.93;;;22.90;63.00;;;;;;5072202;28;20035;-76
2021/06/25 12:12:28;;;;;;;15.88;12.98;;;22.90;62.20;;;;;;5054139;28;20047;-78
2021/06/25 12:15:13;;;;;;;17.30;13.68;;;22.90;62.30;;;;;;5073219;28;20095;-75
2021/06/25 12:17:50;;;;;;;18.40;13.75;;;22.90;62.70;;;;;;5071779;28;20028;-77
2021/06/25 12:20:22;;;;;;;15.02;10.68;;;22.80;62.00;;;;;;5072789;28;20095;-76
2021/06/25 12:23:05;;;;;;;15.55;11.40;;;22.80;61.60;;;;;;5072485;28;20434;-77
2021/06/25 12:25:43;;;;;;;14.77;10.88;;;22.60;61.10;;;;;;5072710;28;20047;-76
2021/06/25 12:28:19;;;;;;;15.57;10.15;;;22.60;61.40;;;;;;5072977;28;20060;-76
2021/06/25 12:30:59;;;;;;;14.45;9.55;;;22.60;61.20;;;;;;5073056;28;20484;-79
2021/06/25 12:33:29;;;;;;;14.60;8.10;;;22.50;60.90;;;;;;5071473;28;20032;-75
2021/06/25 12:35:56;;;;;;;13.43;8.13;;;22.60;60.70;;;;;;5071600;28;20103;-78
2021/06/25 12:38:23;;;;;;;11.48;8.45;;;22.60;59.30;;;;;;5054948;28;20031;-79
2021/06/25 12:41:03;;;;;;;12.02;8.45;;;22.70;58.60;;;;;;5054823;28;20519;-78
2021/06/25 12:43:29;;;;;;;10.57;7.22;;;22.70;58.10;;;;;;5071454;28;20093;-80
2021/06/25 12:45:59;;;;;;;13.77;8.70;;;22.80;57.70;;;;;;5071456;28;20036;-76
2021/06/25 12:48:30;;;;;;;12.40;7.45;;;22.80;58.00;;;;;;5072720;28;20407;-76